< < Back
Terminal Aerodrome Forecast


Current Version              Previous Versions:   1  2  3  4  5  6  7  8  9  

Terminal Aerodrome Forecast

755
FTUS44 KMRX 242320
TAFTYS
TAF
KTYS 242320Z 2500/2524 26010KT P6SM SCT250
     FM250400 VRB03KT P6SM BKN250
     FM251500 VRB03KT P6SM BKN250=

Latest METAR

335
SAUS80 KWBC 250000
MTRTYS
METAR KTYS 242353Z 25008KT 10SM CLR 15/05 A2985 RMK AO2 SLP104 T01500050
10211 20150 53037


USA.gov is the U.S. government's official web portal to all federal, state and local government web resources and services.